sensor_id;sensor_type;location;lat;lon;timestamp;P1;durP1;ratioP1;P2;durP2;ratioP2
45806;SDS011;31507;51.494;7.518;2023-06-26T00:01:23;6.07;;;5.47;;
45806;SDS011;31507;51.494;7.518;2023-06-26T00:03:48;6.75;;;5.38;;
45806;SDS011;31507;51.494;7.518;2023-06-26T00:06:14;7.60;;;5.30;;
45806;SDS011;31507;51.494;7.518;2023-06-26T00:08:40;5.53;;;4.95;;
45806;SDS011;31507;51.494;7.518;2023-06-26T00:11:05;7.05;;;4.97;;
45806;SDS011;31507;51.494;7.518;2023-06-26T00:13:31;5.60;;;5.10;;
45806;SDS011;31507;51.494;7.518;2023-06-26T00:15:57;6.75;;;4.80;;
45806;SDS011;31507;51.494;7.518;2023-06-26T00:18:22;5.38;;;4.80;;
45806;SDS011;31507;51.494;7.518;2023-06-26T00:20:48;6.50;;;5.28;;
45806;SDS011;31507;51.494;7.518;2023-06-26T00:23:16;5.32;;;4.88;;
45806;SDS011;31507;51.494;7.518;2023-06-26T00:25:42;7.57;;;4.90;;
45806;SDS011;31507;51.494;7.518;2023-06-26T00:28:08;6.93;;;4.30;;
45806;SDS011;31507;51.494;7.518;2023-06-26T00:33:44;5.32;;;4.82;;
45806;SDS011;31507;51.494;7.518;2023-06-26T00:36:10;5.18;;;4.63;;
45806;SDS011;31507;51.494;7.518;2023-06-26T00:38:35;5.38;;;4.85;;
45806;SDS011;31507;51.494;7.518;2023-06-26T00:41:01;7.57;;;4.43;;
45806;SDS011;31507;51.494;7.518;2023-06-26T00:43:26;7.45;;;5.22;;
45806;SDS011;31507;51.494;7.518;2023-06-26T00:45:52;6.45;;;4.97;;
45806;SDS011;31507;51.494;7.518;2023-06-26T00:48:17;8.45;;;4.90;;
45806;SDS011;31507;51.494;7.518;2023-06-26T00:53:56;5.25;;;4.75;;
45806;SDS011;31507;51.494;7.518;2023-06-26T01:03:06;5.78;;;4.85;;
45806;SDS011;31507;51.494;7.518;2023-06-26T01:05:32;6.88;;;4.88;;
45806;SDS011;31507;51.494;7.518;2023-06-26T01:11:23;5.53;;;4.70;;
45806;SDS011;31507;51.494;7.518;2023-06-26T01:13:49;6.72;;;4.63;;
45806;SDS011;31507;51.494;7.518;2023-06-26T01:16:16;5.55;;;4.88;;
45806;SDS011;31507;51.494;7.518;2023-06-26T01:18:44;5.55;;;4.97;;
45806;SDS011;31507;51.494;7.518;2023-06-26T01:21:10;5.18;;;4.50;;
45806;SDS011;31507;51.494;7.518;2023-06-26T01:23:48;8.05;;;4.95;;
45806;SDS011;31507;51.494;7.518;2023-06-26T01:26:30;4.57;;;4.18;;
45806;SDS011;31507;51.494;7.518;2023-06-26T01:29:00;7.38;;;4.43;;
45806;SDS011;31507;51.494;7.518;2023-06-26T01:31:27;4.55;;;4.10;;
45806;SDS011;31507;51.494;7.518;2023-06-26T01:33:55;6.53;;;4.70;;
45806;SDS011;31507;51.494;7.518;2023-06-26T01:36:25;6.30;;;5.15;;
45806;SDS011;31507;51.494;7.518;2023-06-26T01:38:51;6.15;;;4.43;;
45806;SDS011;31507;51.494;7.518;2023-06-26T01:41:17;6.97;;;5.15;;
45806;SDS011;31507;51.494;7.518;2023-06-26T01:43:59;5.32;;;4.82;;
45806;SDS011;31507;51.494;7.518;2023-06-26T01:51:42;5.75;;;4.35;;
45806;SDS011;31507;51.494;7.518;2023-06-26T01:54:16;9.93;;;4.93;;
45806;SDS011;31507;51.494;7.518;2023-06-26T01:56:47;6.05;;;4.75;;
45806;SDS011;31507;51.494;7.518;2023-06-26T01:59:14;5.15;;;4.50;;
45806;SDS011;31507;51.494;7.518;2023-06-26T02:01:40;6.25;;;4.57;;
45806;SDS011;31507;51.494;7.518;2023-06-26T02:04:06;5.53;;;4.95;;
45806;SDS011;31507;51.494;7.518;2023-06-26T02:06:32;6.55;;;4.15;;
45806;SDS011;31507;51.494;7.518;2023-06-26T02:08:58;7.93;;;5.28;;
45806;SDS011;31507;51.494;7.518;2023-06-26T02:11:24;5.85;;;4.90;;
45806;SDS011;31507;51.494;7.518;2023-06-26T02:13:49;6.80;;;4.80;;
45806;SDS011;31507;51.494;7.518;2023-06-26T02:16:15;5.60;;;5.00;;
45806;SDS011;31507;51.494;7.518;2023-06-26T02:18:40;6.85;;;4.50;;
45806;SDS011;31507;51.494;7.518;2023-06-26T02:21:06;5.55;;;5.05;;
45806;SDS011;31507;51.494;7.518;2023-06-26T02:23:32;6.30;;;4.15;;
45806;SDS011;31507;51.494;7.518;2023-06-26T02:25:57;6.60;;;4.40;;
45806;SDS011;31507;51.494;7.518;2023-06-26T02:28:23;7.90;;;4.90;;
45806;SDS011;31507;51.494;7.518;2023-06-26T02:30:49;7.95;;;5.28;;
45806;SDS011;31507;51.494;7.518;2023-06-26T02:33:14;5.53;;;4.75;;
45806;SDS011;31507;51.494;7.518;2023-06-26T02:35:40;5.57;;;4.97;;
45806;SDS011;31507;51.494;7.518;2023-06-26T02:38:06;5.65;;;4.80;;
45806;SDS011;31507;51.494;7.518;2023-06-26T02:40:32;6.68;;;5.05;;
45806;SDS011;31507;51.494;7.518;2023-06-26T02:42:58;4.85;;;4.28;;
45806;SDS011;31507;51.494;7.518;2023-06-26T02:45:23;5.65;;;5.03;;
45806;SDS011;31507;51.494;7.518;2023-06-26T02:47:49;6.30;;;4.68;;
45806;SDS011;31507;51.494;7.518;2023-06-26T02:50:15;6.05;;;4.93;;
45806;SDS011;31507;51.494;7.518;2023-06-26T02:52:40;5.15;;;4.70;;
45806;SDS011;31507;51.494;7.518;2023-06-26T02:55:06;6.50;;;4.95;;
45806;SDS011;31507;51.494;7.518;2023-06-26T02:57:32;6.43;;;5.18;;
45806;SDS011;31507;51.494;7.518;2023-06-26T02:59:57;5.80;;;4.93;;
45806;SDS011;31507;51.494;7.518;2023-06-26T03:02:23;5.45;;;4.72;;
45806;SDS011;31507;51.494;7.518;2023-06-26T03:04:49;5.78;;;4.70;;
45806;SDS011;31507;51.494;7.518;2023-06-26T03:07:15;7.35;;;4.75;;
45806;SDS011;31507;51.494;7.518;2023-06-26T03:09:41;5.70;;;5.07;;
45806;SDS011;31507;51.494;7.518;2023-06-26T03:12:06;5.30;;;4.80;;
45806;SDS011;31507;51.494;7.518;2023-06-26T03:14:33;8.35;;;5.20;;
45806;SDS011;31507;51.494;7.518;2023-06-26T03:16:58;7.50;;;5.30;;
45806;SDS011;31507;51.494;7.518;2023-06-26T03:19:28;7.78;;;5.25;;
45806;SDS011;31507;51.494;7.518;2023-06-26T03:21:53;6.30;;;5.47;;
45806;SDS011;31507;51.494;7.518;2023-06-26T03:24:20;7.50;;;5.65;;
45806;SDS011;31507;51.494;7.518;2023-06-26T03:26:45;5.60;;;4.80;;
45806;SDS011;31507;51.494;7.518;2023-06-26T03:29:11;7.60;;;5.57;;
45806;SDS011;31507;51.494;7.518;2023-06-26T03:31:36;7.50;;;5.10;;
45806;SDS011;31507;51.494;7.518;2023-06-26T03:34:02;9.02;;;4.75;;
45806;SDS011;31507;51.494;7.518;2023-06-26T03:46:34;5.85;;;4.90;;
45806;SDS011;31507;51.494;7.518;2023-06-26T03:49:00;6.15;;;5.55;;
45806;SDS011;31507;51.494;7.518;2023-06-26T03:51:26;6.60;;;4.93;;
45806;SDS011;31507;51.494;7.518;2023-06-26T03:53:51;6.13;;;4.93;;
45806;SDS011;31507;51.494;7.518;2023-06-26T03:56:17;6.15;;;4.68;;
45806;SDS011;31507;51.494;7.518;2023-06-26T03:58:42;8.85;;;5.30;;
45806;SDS011;31507;51.494;7.518;2023-06-26T04:01:08;8.15;;;5.10;;
45806;SDS011;31507;51.494;7.518;2023-06-26T04:03:34;6.28;;;4.97;;
45806;SDS011;31507;51.494;7.518;2023-06-26T04:05:59;7.60;;;4.95;;
45806;SDS011;31507;51.494;7.518;2023-06-26T04:08:25;8.68;;;5.38;;
45806;SDS011;31507;51.494;7.518;2023-06-26T04:10:53;5.00;;;4.50;;
45806;SDS011;31507;51.494;7.518;2023-06-26T04:13:22;5.45;;;4.40;;
45806;SDS011;31507;51.494;7.518;2023-06-26T04:15:47;6.45;;;4.63;;
45806;SDS011;31507;51.494;7.518;2023-06-26T04:18:13;7.82;;;4.85;;
45806;SDS011;31507;51.494;7.518;2023-06-26T04:20:39;7.22;;;4.72;;
45806;SDS011;31507;51.494;7.518;2023-06-26T04:23:26;10.20;;;4.88;;
45806;SDS011;31507;51.494;7.518;2023-06-26T04:25:51;5.93;;;4.70;;
45806;SDS011;31507;51.494;7.518;2023-06-26T04:28:17;6.60;;;4.88;;
45806;SDS011;31507;51.494;7.518;2023-06-26T04:30:43;6.72;;;4.60;;
45806;SDS011;31507;51.494;7.518;2023-06-26T04:33:08;8.13;;;4.55;;
45806;SDS011;31507;51.494;7.518;2023-06-26T04:35:37;13.65;;;5.70;;
45806;SDS011;31507;51.494;7.518;2023-06-26T04:38:05;5.28;;;4.78;;
45806;SDS011;31507;51.494;7.518;2023-06-26T04:40:31;11.43;;;5.50;;
45806;SDS011;31507;51.494;7.518;2023-06-26T04:42:56;5.57;;;4.82;;
45806;SDS011;31507;51.494;7.518;2023-06-26T04:45:22;6.97;;;4.82;;
45806;SDS011;31507;51.494;7.518;2023-06-26T04:47:47;7.15;;;5.53;;
45806;SDS011;31507;51.494;7.518;2023-06-26T04:50:13;7.53;;;5.20;;
45806;SDS011;31507;51.494;7.518;2023-06-26T04:52:39;10.32;;;5.15;;
45806;SDS011;31507;51.494;7.518;2023-06-26T04:55:04;7.30;;;5.25;;
45806;SDS011;31507;51.494;7.518;2023-06-26T04:57:30;12.75;;;5.07;;
45806;SDS011;31507;51.494;7.518;2023-06-26T04:59:56;10.90;;;4.95;;
45806;SDS011;31507;51.494;7.518;2023-06-26T05:02:21;7.45;;;5.18;;
45806;SDS011;31507;51.494;7.518;2023-06-26T05:04:47;9.02;;;5.13;;
45806;SDS011;31507;51.494;7.518;2023-06-26T05:07:13;8.98;;;4.88;;
45806;SDS011;31507;51.494;7.518;2023-06-26T05:09:39;10.80;;;4.95;;
45806;SDS011;31507;51.494;7.518;2023-06-26T05:12:04;6.75;;;5.57;;
45806;SDS011;31507;51.494;7.518;2023-06-26T05:14:30;8.88;;;5.53;;
45806;SDS011;31507;51.494;7.518;2023-06-26T05:16:56;8.25;;;5.07;;
45806;SDS011;31507;51.494;7.518;2023-06-26T05:19:21;7.60;;;5.32;;
45806;SDS011;31507;51.494;7.518;2023-06-26T05:21:47;5.70;;;5.15;;
45806;SDS011;31507;51.494;7.518;2023-06-26T05:24:13;8.68;;;5.13;;
45806;SDS011;31507;51.494;7.518;2023-06-26T05:26:41;6.47;;;5.28;;
45806;SDS011;31507;51.494;7.518;2023-06-26T05:29:07;7.13;;;5.35;;
45806;SDS011;31507;51.494;7.518;2023-06-26T05:31:33;7.45;;;5.43;;
45806;SDS011;31507;51.494;7.518;2023-06-26T05:34:00;7.45;;;5.07;;
45806;SDS011;31507;51.494;7.518;2023-06-26T05:36:29;10.80;;;5.22;;
45806;SDS011;31507;51.494;7.518;2023-06-26T05:38:58;9.38;;;5.78;;
45806;SDS011;31507;51.494;7.518;2023-06-26T05:41:24;9.77;;;5.68;;
45806;SDS011;31507;51.494;7.518;2023-06-26T05:43:49;8.45;;;5.63;;
45806;SDS011;31507;51.494;7.518;2023-06-26T05:46:15;9.43;;;5.88;;
45806;SDS011;31507;51.494;7.518;2023-06-26T05:48:41;8.43;;;5.50;;
45806;SDS011;31507;51.494;7.518;2023-06-26T05:51:07;10.00;;;5.47;;
45806;SDS011;31507;51.494;7.518;2023-06-26T05:53:33;9.48;;;5.90;;
45806;SDS011;31507;51.494;7.518;2023-06-26T05:55:59;11.10;;;6.60;;
45806;SDS011;31507;51.494;7.518;2023-06-26T05:58:26;9.93;;;5.90;;
45806;SDS011;31507;51.494;7.518;2023-06-26T06:00:54;7.15;;;5.85;;
45806;SDS011;31507;51.494;7.518;2023-06-26T06:03:20;10.80;;;6.20;;
45806;SDS011;31507;51.494;7.518;2023-06-26T06:05:46;14.45;;;6.68;;
45806;SDS011;31507;51.494;7.518;2023-06-26T06:08:11;8.15;;;6.43;;
45806;SDS011;31507;51.494;7.518;2023-06-26T06:10:37;10.73;;;6.38;;
45806;SDS011;31507;51.494;7.518;2023-06-26T06:13:03;12.05;;;6.05;;
45806;SDS011;31507;51.494;7.518;2023-06-26T06:15:28;7.22;;;6.07;;
45806;SDS011;31507;51.494;7.518;2023-06-26T06:17:54;12.43;;;6.82;;
45806;SDS011;31507;51.494;7.518;2023-06-26T06:20:20;10.80;;;7.05;;
45806;SDS011;31507;51.494;7.518;2023-06-26T06:22:46;10.43;;;6.78;;
45806;SDS011;31507;51.494;7.518;2023-06-26T06:25:13;11.15;;;7.07;;
45806;SDS011;31507;51.494;7.518;2023-06-26T06:27:39;10.82;;;6.60;;
45806;SDS011;31507;51.494;7.518;2023-06-26T06:30:05;9.73;;;6.22;;
45806;SDS011;31507;51.494;7.518;2023-06-26T06:32:31;7.72;;;6.30;;
45806;SDS011;31507;51.494;7.518;2023-06-26T06:34:56;10.73;;;6.40;;
45806;SDS011;31507;51.494;7.518;2023-06-26T06:37:22;9.98;;;6.47;;
45806;SDS011;31507;51.494;7.518;2023-06-26T06:39:48;14.75;;;6.82;;
45806;SDS011;31507;51.494;7.518;2023-06-26T06:42:13;13.30;;;7.15;;
45806;SDS011;31507;51.494;7.518;2023-06-26T06:44:39;18.88;;;6.90;;
45806;SDS011;31507;51.494;7.518;2023-06-26T06:47:04;8.27;;;6.28;;
45806;SDS011;31507;51.494;7.518;2023-06-26T06:49:30;16.27;;;6.32;;
45806;SDS011;31507;51.494;7.518;2023-06-26T06:51:56;8.15;;;6.22;;
45806;SDS011;31507;51.494;7.518;2023-06-26T06:54:21;10.85;;;6.47;;
45806;SDS011;31507;51.494;7.518;2023-06-26T06:56:50;15.63;;;6.00;;
45806;SDS011;31507;51.494;7.518;2023-06-26T06:59:16;11.57;;;6.32;;
45806;SDS011;31507;51.494;7.518;2023-06-26T07:01:42;9.43;;;6.00;;
45806;SDS011;31507;51.494;7.518;2023-06-26T07:04:07;14.48;;;5.95;;
45806;SDS011;31507;51.494;7.518;2023-06-26T07:06:33;8.70;;;5.57;;
45806;SDS011;31507;51.494;7.518;2023-06-26T07:08:59;9.70;;;5.82;;
45806;SDS011;31507;51.494;7.518;2023-06-26T07:11:25;15.13;;;5.68;;
45806;SDS011;31507;51.494;7.518;2023-06-26T07:13:50;16.58;;;6.10;;
45806;SDS011;31507;51.494;7.518;2023-06-26T07:16:16;9.65;;;5.35;;
45806;SDS011;31507;51.494;7.518;2023-06-26T07:18:41;16.35;;;5.43;;
45806;SDS011;31507;51.494;7.518;2023-06-26T07:21:08;10.90;;;5.13;;
45806;SDS011;31507;51.494;7.518;2023-06-26T07:23:34;10.43;;;6.30;;
45806;SDS011;31507;51.494;7.518;2023-06-26T07:25:59;13.40;;;5.97;;
45806;SDS011;31507;51.494;7.518;2023-06-26T07:28:25;14.55;;;5.40;;
45806;SDS011;31507;51.494;7.518;2023-06-26T07:30:51;13.93;;;5.50;;
45806;SDS011;31507;51.494;7.518;2023-06-26T07:33:16;13.55;;;5.40;;
45806;SDS011;31507;51.494;7.518;2023-06-26T07:35:42;9.23;;;5.15;;
45806;SDS011;31507;51.494;7.518;2023-06-26T07:38:07;9.95;;;5.20;;
45806;SDS011;31507;51.494;7.518;2023-06-26T07:40:33;10.70;;;5.03;;
45806;SDS011;31507;51.494;7.518;2023-06-26T07:42:59;11.32;;;5.88;;
45806;SDS011;31507;51.494;7.518;2023-06-26T07:45:24;12.15;;;5.93;;
45806;SDS011;31507;51.494;7.518;2023-06-26T07:47:50;13.68;;;5.65;;
45806;SDS011;31507;51.494;7.518;2023-06-26T07:50:16;10.55;;;6.22;;
45806;SDS011;31507;51.494;7.518;2023-06-26T07:52:46;14.68;;;6.38;;
45806;SDS011;31507;51.494;7.518;2023-06-26T07:55:12;12.20;;;5.88;;
45806;SDS011;31507;51.494;7.518;2023-06-26T07:57:37;11.60;;;6.10;;
45806;SDS011;31507;51.494;7.518;2023-06-26T08:00:03;12.65;;;5.63;;
45806;SDS011;31507;51.494;7.518;2023-06-26T08:02:31;9.68;;;5.55;;
45806;SDS011;31507;51.494;7.518;2023-06-26T08:04:57;18.20;;;5.90;;
45806;SDS011;31507;51.494;7.518;2023-06-26T08:07:23;13.02;;;6.25;;
45806;SDS011;31507;51.494;7.518;2023-06-26T08:09:48;11.18;;;5.38;;
45806;SDS011;31507;51.494;7.518;2023-06-26T08:12:14;13.18;;;5.97;;
45806;SDS011;31507;51.494;7.518;2023-06-26T08:14:39;12.93;;;6.20;;
45806;SDS011;31507;51.494;7.518;2023-06-26T08:17:05;14.88;;;6.05;;
45806;SDS011;31507;51.494;7.518;2023-06-26T08:19:31;11.68;;;5.90;;
45806;SDS011;31507;51.494;7.518;2023-06-26T08:21:56;10.52;;;5.82;;
45806;SDS011;31507;51.494;7.518;2023-06-26T08:24:22;10.27;;;6.13;;
45806;SDS011;31507;51.494;7.518;2023-06-26T08:26:47;11.13;;;5.65;;
45806;SDS011;31507;51.494;7.518;2023-06-26T08:29:13;15.95;;;6.30;;
45806;SDS011;31507;51.494;7.518;2023-06-26T08:31:39;9.98;;;5.50;;
45806;SDS011;31507;51.494;7.518;2023-06-26T08:34:05;14.10;;;6.57;;
45806;SDS011;31507;51.494;7.518;2023-06-26T08:36:32;15.15;;;5.50;;
45806;SDS011;31507;51.494;7.518;2023-06-26T08:38:58;17.13;;;6.43;;
45806;SDS011;31507;51.494;7.518;2023-06-26T08:41:23;12.98;;;6.32;;
45806;SDS011;31507;51.494;7.518;2023-06-26T08:43:49;13.00;;;5.95;;
45806;SDS011;31507;51.494;7.518;2023-06-26T08:46:17;11.63;;;6.03;;
45806;SDS011;31507;51.494;7.518;2023-06-26T08:48:45;11.13;;;6.47;;
45806;SDS011;31507;51.494;7.518;2023-06-26T08:51:16;13.80;;;6.57;;
45806;SDS011;31507;51.494;7.518;2023-06-26T08:56:11;15.48;;;6.43;;
45806;SDS011;31507;51.494;7.518;2023-06-26T08:58:40;17.25;;;6.32;;
45806;SDS011;31507;51.494;7.518;2023-06-26T09:01:05;13.95;;;6.25;;
45806;SDS011;31507;51.494;7.518;2023-06-26T09:03:32;14.70;;;7.32;;
45806;SDS011;31507;51.494;7.518;2023-06-26T09:05:58;16.38;;;7.38;;
45806;SDS011;31507;51.494;7.518;2023-06-26T09:08:23;17.05;;;8.30;;
45806;SDS011;31507;51.494;7.518;2023-06-26T09:10:49;17.77;;;7.88;;
45806;SDS011;31507;51.494;7.518;2023-06-26T09:13:15;13.77;;;8.52;;
45806;SDS011;31507;51.494;7.518;2023-06-26T09:15:42;19.00;;;9.70;;
45806;SDS011;31507;51.494;7.518;2023-06-26T09:18:08;13.57;;;10.43;;
45806;SDS011;31507;51.494;7.518;2023-06-26T09:20:34;13.48;;;8.88;;
45806;SDS011;31507;51.494;7.518;2023-06-26T09:23:00;17.25;;;9.27;;
45806;SDS011;31507;51.494;7.518;2023-06-26T09:25:26;19.55;;;9.43;;
45806;SDS011;31507;51.494;7.518;2023-06-26T09:27:53;17.05;;;10.35;;
45806;SDS011;31507;51.494;7.518;2023-06-26T09:30:19;16.38;;;10.32;;
45806;SDS011;31507;51.494;7.518;2023-06-26T09:32:45;16.58;;;10.07;;
45806;SDS011;31507;51.494;7.518;2023-06-26T09:35:11;23.35;;;10.30;;
45806;SDS011;31507;51.494;7.518;2023-06-26T09:37:37;20.63;;;9.20;;
45806;SDS011;31507;51.494;7.518;2023-06-26T09:40:03;16.33;;;10.35;;
45806;SDS011;31507;51.494;7.518;2023-06-26T09:42:32;17.73;;;9.50;;
45806;SDS011;31507;51.494;7.518;2023-06-26T09:44:58;16.70;;;8.50;;
45806;SDS011;31507;51.494;7.518;2023-06-26T09:47:24;19.80;;;8.80;;
45806;SDS011;31507;51.494;7.518;2023-06-26T09:49:50;16.95;;;8.18;;
45806;SDS011;31507;51.494;7.518;2023-06-26T09:52:17;25.50;;;8.75;;
45806;SDS011;31507;51.494;7.518;2023-06-26T09:54:46;17.55;;;7.57;;
45806;SDS011;31507;51.494;7.518;2023-06-26T09:57:13;16.63;;;6.85;;
45806;SDS011;31507;51.494;7.518;2023-06-26T09:59:42;11.75;;;5.85;;
45806;SDS011;31507;51.494;7.518;2023-06-26T10:02:11;14.57;;;4.80;;
45806;SDS011;31507;51.494;7.518;2023-06-26T10:04:37;14.98;;;5.13;;
45806;SDS011;31507;51.494;7.518;2023-06-26T10:07:06;11.25;;;5.50;;
45806;SDS011;31507;51.494;7.518;2023-06-26T10:09:43;15.52;;;5.75;;
45806;SDS011;31507;51.494;7.518;2023-06-26T10:12:22;10.02;;;4.88;;
45806;SDS011;31507;51.494;7.518;2023-06-26T10:14:56;11.65;;;4.80;;
45806;SDS011;31507;51.494;7.518;2023-06-26T10:17:27;10.48;;;4.50;;
45806;SDS011;31507;51.494;7.518;2023-06-26T10:19:55;9.40;;;4.25;;
45806;SDS011;31507;51.494;7.518;2023-06-26T10:22:27;8.43;;;4.22;;
45806;SDS011;31507;51.494;7.518;2023-06-26T10:24:58;16.17;;;4.97;;
45806;SDS011;31507;51.494;7.518;2023-06-26T10:27:25;12.82;;;4.70;;
45806;SDS011;31507;51.494;7.518;2023-06-26T10:29:55;10.98;;;4.07;;
45806;SDS011;31507;51.494;7.518;2023-06-26T10:32:24;11.98;;;4.65;;
45806;SDS011;31507;51.494;7.518;2023-06-26T10:34:51;16.00;;;5.18;;
45806;SDS011;31507;51.494;7.518;2023-06-26T10:37:17;14.35;;;4.78;;
45806;SDS011;31507;51.494;7.518;2023-06-26T10:39:50;15.27;;;4.05;;
45806;SDS011;31507;51.494;7.518;2023-06-26T10:42:19;17.00;;;4.80;;
45806;SDS011;31507;51.494;7.518;2023-06-26T10:44:58;13.88;;;4.55;;
45806;SDS011;31507;51.494;7.518;2023-06-26T10:47:48;8.88;;;4.03;;
45806;SDS011;31507;51.494;7.518;2023-06-26T10:55:54;10.68;;;3.70;;
45806;SDS011;31507;51.494;7.518;2023-06-26T11:03:40;7.38;;;3.20;;
45806;SDS011;31507;51.494;7.518;2023-06-26T11:06:13;14.65;;;3.40;;
45806;SDS011;31507;51.494;7.518;2023-06-26T11:11:15;7.60;;;2.97;;
45806;SDS011;31507;51.494;7.518;2023-06-26T11:13:42;10.63;;;3.42;;
45806;SDS011;31507;51.494;7.518;2023-06-26T11:16:09;14.00;;;3.22;;
45806;SDS011;31507;51.494;7.518;2023-06-26T11:18:36;5.00;;;2.78;;
45806;SDS011;31507;51.494;7.518;2023-06-26T11:21:09;6.43;;;2.97;;
45806;SDS011;31507;51.494;7.518;2023-06-26T11:23:37;5.72;;;3.05;;
45806;SDS011;31507;51.494;7.518;2023-06-26T11:26:18;5.10;;;2.67;;
45806;SDS011;31507;51.494;7.518;2023-06-26T11:28:48;8.30;;;2.97;;
45806;SDS011;31507;51.494;7.518;2023-06-26T11:31:26;6.85;;;3.13;;
45806;SDS011;31507;51.494;7.518;2023-06-26T11:33:54;5.43;;;2.83;;
45806;SDS011;31507;51.494;7.518;2023-06-26T11:36:23;6.35;;;2.83;;
45806;SDS011;31507;51.494;7.518;2023-06-26T11:38:53;7.45;;;3.35;;
45806;SDS011;31507;51.494;7.518;2023-06-26T11:41:21;10.75;;;3.30;;
45806;SDS011;31507;51.494;7.518;2023-06-26T11:43:47;8.32;;;3.15;;
45806;SDS011;31507;51.494;7.518;2023-06-26T11:46:12;6.13;;;2.92;;
45806;SDS011;31507;51.494;7.518;2023-06-26T11:48:42;7.85;;;2.88;;
45806;SDS011;31507;51.494;7.518;2023-06-26T11:51:08;8.00;;;3.25;;
45806;SDS011;31507;51.494;7.518;2023-06-26T11:53:38;9.07;;;3.17;;
45806;SDS011;31507;51.494;7.518;2023-06-26T11:56:09;7.13;;;2.97;;
45806;SDS011;31507;51.494;7.518;2023-06-26T11:58:36;12.57;;;3.13;;
45806;SDS011;31507;51.494;7.518;2023-06-26T12:01:19;13.00;;;3.10;;
45806;SDS011;31507;51.494;7.518;2023-06-26T12:03:46;7.57;;;2.70;;
45806;SDS011;31507;51.494;7.518;2023-06-26T12:06:12;6.40;;;2.60;;
45806;SDS011;31507;51.494;7.518;2023-06-26T12:08:37;4.72;;;2.53;;
45806;SDS011;31507;51.494;7.518;2023-06-26T12:11:03;7.07;;;2.47;;
45806;SDS011;31507;51.494;7.518;2023-06-26T12:13:29;3.75;;;2.00;;
45806;SDS011;31507;51.494;7.518;2023-06-26T12:15:57;9.50;;;2.40;;
45806;SDS011;31507;51.494;7.518;2023-06-26T12:18:22;11.82;;;2.05;;
45806;SDS011;31507;51.494;7.518;2023-06-26T12:20:50;10.30;;;2.40;;
45806;SDS011;31507;51.494;7.518;2023-06-26T12:23:16;4.68;;;2.20;;
45806;SDS011;31507;51.494;7.518;2023-06-26T12:25:42;5.05;;;2.15;;
45806;SDS011;31507;51.494;7.518;2023-06-26T12:28:18;5.60;;;2.10;;
45806;SDS011;31507;51.494;7.518;2023-06-26T12:30:47;6.32;;;2.08;;
45806;SDS011;31507;51.494;7.518;2023-06-26T12:33:33;4.03;;;2.00;;
45806;SDS011;31507;51.494;7.518;2023-06-26T12:35:58;7.38;;;2.22;;
45806;SDS011;31507;51.494;7.518;2023-06-26T12:38:32;3.90;;;1.90;;
45806;SDS011;31507;51.494;7.518;2023-06-26T12:40:58;9.93;;;2.50;;
45806;SDS011;31507;51.494;7.518;2023-06-26T12:43:25;4.05;;;1.80;;
45806;SDS011;31507;51.494;7.518;2023-06-26T12:45:55;3.80;;;1.55;;
45806;SDS011;31507;51.494;7.518;2023-06-26T12:48:21;4.07;;;1.40;;
45806;SDS011;31507;51.494;7.518;2023-06-26T12:50:47;4.55;;;1.77;;
45806;SDS011;31507;51.494;7.518;2023-06-26T12:53:16;6.30;;;1.80;;
45806;SDS011;31507;51.494;7.518;2023-06-26T12:55:42;5.30;;;1.58;;
45806;SDS011;31507;51.494;7.518;2023-06-26T12:58:07;6.82;;;1.63;;
45806;SDS011;31507;51.494;7.518;2023-06-26T13:00:33;5.00;;;1.60;;
45806;SDS011;31507;51.494;7.518;2023-06-26T13:02:59;6.43;;;1.60;;
45806;SDS011;31507;51.494;7.518;2023-06-26T13:05:24;5.32;;;1.63;;
45806;SDS011;31507;51.494;7.518;2023-06-26T13:07:50;4.57;;;1.77;;
45806;SDS011;31507;51.494;7.518;2023-06-26T13:10:15;6.53;;;1.17;;
45806;SDS011;31507;51.494;7.518;2023-06-26T13:12:42;3.75;;;1.52;;
45806;SDS011;31507;51.494;7.518;2023-06-26T13:15:08;5.40;;;1.98;;
45806;SDS011;31507;51.494;7.518;2023-06-26T13:17:34;6.00;;;1.77;;
45806;SDS011;31507;51.494;7.518;2023-06-26T13:19:59;4.50;;;1.27;;
45806;SDS011;31507;51.494;7.518;2023-06-26T13:22:25;6.82;;;1.30;;
45806;SDS011;31507;51.494;7.518;2023-06-26T13:24:50;4.05;;;1.33;;
45806;SDS011;31507;51.494;7.518;2023-06-26T13:27:16;4.72;;;1.45;;
45806;SDS011;31507;51.494;7.518;2023-06-26T13:29:42;4.82;;;1.33;;
45806;SDS011;31507;51.494;7.518;2023-06-26T13:32:07;9.10;;;1.63;;
45806;SDS011;31507;51.494;7.518;2023-06-26T13:34:33;1.83;;;1.35;;
45806;SDS011;31507;51.494;7.518;2023-06-26T13:36:59;9.88;;;1.40;;
45806;SDS011;31507;51.494;7.518;2023-06-26T13:39:25;7.18;;;1.35;;
45806;SDS011;31507;51.494;7.518;2023-06-26T13:41:50;2.72;;;1.38;;
45806;SDS011;31507;51.494;7.518;2023-06-26T13:44:16;5.63;;;1.55;;
45806;SDS011;31507;51.494;7.518;2023-06-26T13:46:42;15.88;;;1.80;;
45806;SDS011;31507;51.494;7.518;2023-06-26T13:49:08;4.55;;;1.60;;
45806;SDS011;31507;51.494;7.518;2023-06-26T13:51:33;3.88;;;1.50;;
45806;SDS011;31507;51.494;7.518;2023-06-26T13:53:59;7.40;;;1.50;;
45806;SDS011;31507;51.494;7.518;2023-06-26T13:56:25;6.07;;;1.73;;
45806;SDS011;31507;51.494;7.518;2023-06-26T13:58:51;5.25;;;1.40;;
45806;SDS011;31507;51.494;7.518;2023-06-26T14:01:17;3.40;;;1.30;;
45806;SDS011;31507;51.494;7.518;2023-06-26T14:03:42;6.18;;;1.58;;
45806;SDS011;31507;51.494;7.518;2023-06-26T14:06:08;5.63;;;1.30;;
45806;SDS011;31507;51.494;7.518;2023-06-26T14:08:33;4.00;;;1.50;;
45806;SDS011;31507;51.494;7.518;2023-06-26T14:10:59;4.00;;;1.42;;
45806;SDS011;31507;51.494;7.518;2023-06-26T14:13:26;7.13;;;1.30;;
45806;SDS011;31507;51.494;7.518;2023-06-26T14:15:51;6.22;;;1.13;;
45806;SDS011;31507;51.494;7.518;2023-06-26T14:18:17;3.20;;;1.38;;
45806;SDS011;31507;51.494;7.518;2023-06-26T14:20:44;2.58;;;1.20;;
45806;SDS011;31507;51.494;7.518;2023-06-26T14:23:10;2.38;;;1.20;;
45806;SDS011;31507;51.494;7.518;2023-06-26T14:25:35;6.82;;;1.30;;
45806;SDS011;31507;51.494;7.518;2023-06-26T14:28:01;2.28;;;1.30;;
45806;SDS011;31507;51.494;7.518;2023-06-26T14:30:27;2.72;;;1.10;;
45806;SDS011;31507;51.494;7.518;2023-06-26T14:32:52;3.05;;;1.10;;
45806;SDS011;31507;51.494;7.518;2023-06-26T14:35:18;7.30;;;1.13;;
45806;SDS011;31507;51.494;7.518;2023-06-26T14:37:44;2.47;;;1.20;;
45806;SDS011;31507;51.494;7.518;2023-06-26T14:40:09;2.67;;;1.10;;
45806;SDS011;31507;51.494;7.518;2023-06-26T14:42:36;2.28;;;1.30;;
45806;SDS011;31507;51.494;7.518;2023-06-26T14:45:01;4.95;;;1.63;;
45806;SDS011;31507;51.494;7.518;2023-06-26T14:47:28;3.63;;;0.90;;
45806;SDS011;31507;51.494;7.518;2023-06-26T14:49:53;3.50;;;1.23;;
45806;SDS011;31507;51.494;7.518;2023-06-26T14:52:19;6.80;;;1.50;;
45806;SDS011;31507;51.494;7.518;2023-06-26T14:54:45;4.47;;;1.08;;
45806;SDS011;31507;51.494;7.518;2023-06-26T14:57:10;4.38;;;1.30;;
45806;SDS011;31507;51.494;7.518;2023-06-26T14:59:36;7.45;;;1.40;;
45806;SDS011;31507;51.494;7.518;2023-06-26T15:02:01;2.33;;;1.10;;
45806;SDS011;31507;51.494;7.518;2023-06-26T15:04:27;2.47;;;1.30;;
45806;SDS011;31507;51.494;7.518;2023-06-26T15:06:53;4.28;;;1.48;;
45806;SDS011;31507;51.494;7.518;2023-06-26T15:09:18;14.00;;;1.80;;
45806;SDS011;31507;51.494;7.518;2023-06-26T15:11:44;4.60;;;1.58;;
45806;SDS011;31507;51.494;7.518;2023-06-26T15:14:09;5.65;;;1.30;;
45806;SDS011;31507;51.494;7.518;2023-06-26T15:16:35;7.53;;;1.40;;
45806;SDS011;31507;51.494;7.518;2023-06-26T15:19:01;6.07;;;1.45;;
45806;SDS011;31507;51.494;7.518;2023-06-26T15:21:27;3.38;;;1.33;;
45806;SDS011;31507;51.494;7.518;2023-06-26T15:23:52;3.30;;;1.20;;
45806;SDS011;31507;51.494;7.518;2023-06-26T15:26:18;5.35;;;1.50;;
45806;SDS011;31507;51.494;7.518;2023-06-26T15:28:44;6.90;;;1.77;;